sensor_id;sensor_type;location;lat;lon;timestamp;pressure;altitude;pressure_sealevel;temperature;humidity
71791;BME280;59638;52.126;5.434;2022-08-21T00:00:21;101875.94;;;11.98;96.99
71791;BME280;59638;52.126;5.434;2022-08-21T00:02:55;101880.97;;;12.01;97.57
71791;BME280;59638;52.126;5.434;2022-08-21T00:05:24;101883.63;;;12.01;96.99
71791;BME280;59638;52.126;5.434;2022-08-21T00:07:50;101878.59;;;11.98;97.47
71791;BME280;59638;52.126;5.434;2022-08-21T00:10:18;101873.53;;;11.95;97.33
71791;BME280;59638;52.126;5.434;2022-08-21T00:12:45;101880.88;;;11.91;97.50
71791;BME280;59638;52.126;5.434;2022-08-21T00:15:16;101884.63;;;11.89;97.38
71791;BME280;59638;52.126;5.434;2022-08-21T00:17:43;101882.06;;;11.87;97.11
71791;BME280;59638;52.126;5.434;2022-08-21T00:20:11;101871.63;;;11.86;97.36
71791;BME280;59638;52.126;5.434;2022-08-21T00:22:38;101881.63;;;11.82;97.53
71791;BME280;59638;52.126;5.434;2022-08-21T00:25:06;101880.97;;;11.79;97.50
71791;BME280;59638;52.126;5.434;2022-08-21T00:27:33;101882.16;;;11.75;97.54
71791;BME280;59638;52.126;5.434;2022-08-21T00:30:00;101878.81;;;11.73;97.28
71791;BME280;59638;52.126;5.434;2022-08-21T00:32:27;101876.88;;;11.75;97.42
71791;BME280;59638;52.126;5.434;2022-08-21T00:34:54;101872.69;;;11.72;97.44
71791;BME280;59638;52.126;5.434;2022-08-21T00:37:21;101868.22;;;11.73;97.58
71791;BME280;59638;52.126;5.434;2022-08-21T00:39:48;101863.19;;;11.69;97.52
71791;BME280;59638;52.126;5.434;2022-08-21T00:42:15;101865.09;;;11.67;97.52
71791;BME280;59638;52.126;5.434;2022-08-21T00:44:43;101870.63;;;11.64;97.62
71791;BME280;59638;52.126;5.434;2022-08-21T00:47:11;101863.75;;;11.62;97.76
71791;BME280;59638;52.126;5.434;2022-08-21T00:49:38;101865.56;;;11.61;97.51
71791;BME280;59638;52.126;5.434;2022-08-21T00:52:07;101870.00;;;11.61;97.33
71791;BME280;59638;52.126;5.434;2022-08-21T00:54:35;101874.47;;;11.60;97.74
71791;BME280;59638;52.126;5.434;2022-08-21T00:57:14;101879.75;;;11.60;97.59
71791;BME280;59638;52.126;5.434;2022-08-21T00:59:46;101868.22;;;11.61;97.75
71791;BME280;59638;52.126;5.434;2022-08-21T01:02:13;101867.28;;;11.62;97.65
71791;BME280;59638;52.126;5.434;2022-08-21T01:04:40;101862.91;;;11.61;97.55
71791;BME280;59638;52.126;5.434;2022-08-21T01:07:07;101863.88;;;11.60;97.64
71791;BME280;59638;52.126;5.434;2022-08-21T01:09:34;101866.66;;;11.59;97.53
71791;BME280;59638;52.126;5.434;2022-08-21T01:12:02;101859.06;;;11.54;97.65
71791;BME280;59638;52.126;5.434;2022-08-21T01:14:29;101860.88;;;11.54;97.80
71791;BME280;59638;52.126;5.434;2022-08-21T01:16:58;101861.00;;;11.52;97.97
71791;BME280;59638;52.126;5.434;2022-08-21T01:19:27;101858.09;;;11.55;97.66
71791;BME280;59638;52.126;5.434;2022-08-21T01:21:54;101855.47;;;11.55;97.76
71791;BME280;59638;52.126;5.434;2022-08-21T01:24:21;101864.34;;;11.54;98.05
71791;BME280;59638;52.126;5.434;2022-08-21T01:26:49;101867.13;;;11.53;98.00
71791;BME280;59638;52.126;5.434;2022-08-21T01:29:36;101870.88;;;11.50;97.86
71791;BME280;59638;52.126;5.434;2022-08-21T01:32:13;101863.91;;;11.49;97.60
71791;BME280;59638;52.126;5.434;2022-08-21T01:34:43;101863.16;;;11.47;97.64
71791;BME280;59638;52.126;5.434;2022-08-21T01:37:11;101863.53;;;11.42;97.69
71791;BME280;59638;52.126;5.434;2022-08-21T01:39:38;101857.75;;;11.37;98.05
71791;BME280;59638;52.126;5.434;2022-08-21T01:42:05;101858.59;;;11.38;97.80
71791;BME280;59638;52.126;5.434;2022-08-21T01:44:33;101865.31;;;11.42;97.62
71791;BME280;59638;52.126;5.434;2022-08-21T01:47:06;101861.47;;;11.46;97.81
71791;BME280;59638;52.126;5.434;2022-08-21T01:49:34;101854.50;;;11.45;97.75
71791;BME280;59638;52.126;5.434;2022-08-21T01:52:00;101853.88;;;11.41;98.15
71791;BME280;59638;52.126;5.434;2022-08-21T01:54:27;101853.31;;;11.38;97.84
71791;BME280;59638;52.126;5.434;2022-08-21T01:56:55;101851.63;;;11.37;97.88
71791;BME280;59638;52.126;5.434;2022-08-21T01:59:22;101859.78;;;11.34;98.48
71791;BME280;59638;52.126;5.434;2022-08-21T02:01:50;101855.22;;;11.36;98.06
71791;BME280;59638;52.126;5.434;2022-08-21T02:04:16;101856.19;;;11.46;98.11
71791;BME280;59638;52.126;5.434;2022-08-21T02:06:43;101856.19;;;11.46;98.37
71791;BME280;59638;52.126;5.434;2022-08-21T02:09:11;101856.44;;;11.43;98.39
71791;BME280;59638;52.126;5.434;2022-08-21T02:11:38;101853.31;;;11.38;98.44
71791;BME280;59638;52.126;5.434;2022-08-21T02:14:08;101851.84;;;11.34;98.34
71791;BME280;59638;52.126;5.434;2022-08-21T02:16:35;101841.25;;;11.34;98.42
71791;BME280;59638;52.126;5.434;2022-08-21T02:19:02;101840.56;;;11.32;98.51
71791;BME280;59638;52.126;5.434;2022-08-21T02:21:29;101835.13;;;11.33;98.24
71791;BME280;59638;52.126;5.434;2022-08-21T02:23:55;101848.47;;;11.32;98.36
71791;BME280;59638;52.126;5.434;2022-08-21T02:26:22;101836.44;;;11.28;98.53
71791;BME280;59638;52.126;5.434;2022-08-21T02:28:48;101843.53;;;11.27;98.50
71791;BME280;59638;52.126;5.434;2022-08-21T02:31:15;101835.72;;;11.26;98.21
71791;BME280;59638;52.126;5.434;2022-08-21T02:33:41;101836.69;;;11.25;98.54
71791;BME280;59638;52.126;5.434;2022-08-21T02:36:09;101829.72;;;11.24;98.20
71791;BME280;59638;52.126;5.434;2022-08-21T02:38:37;101831.03;;;11.18;98.47
71791;BME280;59638;52.126;5.434;2022-08-21T02:41:08;101829.47;;;11.15;98.33
71791;BME280;59638;52.126;5.434;2022-08-21T02:43:35;101826.81;;;11.15;98.62
71791;BME280;59638;52.126;5.434;2022-08-21T02:46:03;101823.47;;;11.13;98.45
71791;BME280;59638;52.126;5.434;2022-08-21T02:48:31;101828.88;;;11.12;98.72
71791;BME280;59638;52.126;5.434;2022-08-21T02:51:08;101818.41;;;11.10;98.66
71791;BME280;59638;52.126;5.434;2022-08-21T02:53:35;101827.31;;;11.09;98.69
71791;BME280;59638;52.126;5.434;2022-08-21T02:56:07;101819.38;;;11.09;98.63
71791;BME280;59638;52.126;5.434;2022-08-21T02:58:38;101816.25;;;11.04;98.45
71791;BME280;59638;52.126;5.434;2022-08-21T03:01:05;101812.84;;;11.02;98.43
71791;BME280;59638;52.126;5.434;2022-08-21T03:03:37;101823.41;;;11.02;98.44
71791;BME280;59638;52.126;5.434;2022-08-21T03:06:06;101813.81;;;11.01;98.58
71791;BME280;59638;52.126;5.434;2022-08-21T03:08:34;101819.09;;;11.01;98.70
71791;BME280;59638;52.126;5.434;2022-08-21T03:11:01;101811.91;;;11.03;98.53
71791;BME280;59638;52.126;5.434;2022-08-21T03:13:28;101812.63;;;11.05;98.80
71791;BME280;59638;52.126;5.434;2022-08-21T03:15:55;101813.13;;;11.10;98.96
71791;BME280;59638;52.126;5.434;2022-08-21T03:18:23;101817.00;;;11.18;99.10
71791;BME280;59638;52.126;5.434;2022-08-21T03:20:49;101817.69;;;11.20;99.24
71791;BME280;59638;52.126;5.434;2022-08-21T03:23:17;101817.22;;;11.26;98.88
71791;BME280;59638;52.126;5.434;2022-08-21T03:25:46;101812.19;;;11.34;98.98
71791;BME280;59638;52.126;5.434;2022-08-21T03:28:16;101817.72;;;11.42;99.56
71791;BME280;59638;52.126;5.434;2022-08-21T03:30:44;101808.38;;;11.49;99.44
71791;BME280;59638;52.126;5.434;2022-08-21T03:33:11;101807.78;;;11.57;99.20
71791;BME280;59638;52.126;5.434;2022-08-21T03:35:47;101800.41;;;11.60;99.17
71791;BME280;59638;52.126;5.434;2022-08-21T03:38:15;101795.88;;;11.62;99.18
71791;BME280;59638;52.126;5.434;2022-08-21T03:40:42;101810.78;;;11.63;99.30
71791;BME280;59638;52.126;5.434;2022-08-21T03:43:09;101803.44;;;11.56;99.04
71791;BME280;59638;52.126;5.434;2022-08-21T03:45:37;101801.63;;;11.45;99.14
71791;BME280;59638;52.126;5.434;2022-08-21T03:48:04;101805.94;;;11.35;99.09
71791;BME280;59638;52.126;5.434;2022-08-21T03:50:36;101800.19;;;11.30;98.86
71791;BME280;59638;52.126;5.434;2022-08-21T03:53:08;101802.84;;;11.30;98.75
71791;BME280;59638;52.126;5.434;2022-08-21T03:55:43;101810.28;;;11.25;98.86
71791;BME280;59638;52.126;5.434;2022-08-21T03:58:10;101801.00;;;11.19;98.91
71791;BME280;59638;52.126;5.434;2022-08-21T04:00:43;101797.03;;;11.13;98.81
71791;BME280;59638;52.126;5.434;2022-08-21T04:03:10;101804.25;;;11.11;99.12
71791;BME280;59638;52.126;5.434;2022-08-21T04:05:36;101800.88;;;11.09;99.11
71791;BME280;59638;52.126;5.434;2022-08-21T04:08:05;101804.47;;;11.08;99.02
71791;BME280;59638;52.126;5.434;2022-08-21T04:10:34;101805.91;;;11.12;99.03
71791;BME280;59638;52.126;5.434;2022-08-21T04:13:02;101803.16;;;11.14;99.07
71791;BME280;59638;52.126;5.434;2022-08-21T04:15:28;101806.16;;;11.21;99.16
71791;BME280;59638;52.126;5.434;2022-08-21T04:17:55;101805.09;;;11.34;99.55
71791;BME280;59638;52.126;5.434;2022-08-21T04:20:22;101804.28;;;11.45;99.39
71791;BME280;59638;52.126;5.434;2022-08-21T04:22:49;101800.41;;;11.60;99.63
71791;BME280;59638;52.126;5.434;2022-08-21T04:25:18;101802.59;;;11.66;99.45
71791;BME280;59638;52.126;5.434;2022-08-21T04:27:46;101801.38;;;11.70;99.42
71791;BME280;59638;52.126;5.434;2022-08-21T04:30:14;101808.94;;;11.75;99.40
71791;BME280;59638;52.126;5.434;2022-08-21T04:32:47;101800.91;;;11.77;99.70
71791;BME280;59638;52.126;5.434;2022-08-21T04:35:17;101811.72;;;11.74;99.73
71791;BME280;59638;52.126;5.434;2022-08-21T04:37:45;101802.59;;;11.78;99.80
71791;BME280;59638;52.126;5.434;2022-08-21T04:40:15;101801.16;;;11.85;99.69
71791;BME280;59638;52.126;5.434;2022-08-21T04:45:25;101796.34;;;11.90;99.45
71791;BME280;59638;52.126;5.434;2022-08-21T04:47:54;101793.56;;;11.91;99.84
71791;BME280;59638;52.126;5.434;2022-08-21T04:50:24;101803.06;;;11.94;99.73
71791;BME280;59638;52.126;5.434;2022-08-21T04:52:53;101800.53;;;11.92;99.87
71791;BME280;59638;52.126;5.434;2022-08-21T04:55:20;101801.38;;;11.93;99.37
71791;BME280;59638;52.126;5.434;2022-08-21T04:57:47;101804.72;;;11.95;99.46
71791;BME280;59638;52.126;5.434;2022-08-21T05:00:22;101801.72;;;12.00;99.62
71791;BME280;59638;52.126;5.434;2022-08-21T05:02:52;101811.25;;;12.02;99.82
71791;BME280;59638;52.126;5.434;2022-08-21T05:05:23;101807.63;;;12.03;99.61
71791;BME280;59638;52.126;5.434;2022-08-21T05:07:50;101809.31;;;12.04;99.70
71791;BME280;59638;52.126;5.434;2022-08-21T05:10:18;101814.34;;;12.07;99.49
71791;BME280;59638;52.126;5.434;2022-08-21T05:12:44;101824.22;;;12.05;99.42
71791;BME280;59638;52.126;5.434;2022-08-21T05:15:11;101817.75;;;11.98;99.45
71791;BME280;59638;52.126;5.434;2022-08-21T05:17:42;101829.28;;;11.97;99.23
71791;BME280;59638;52.126;5.434;2022-08-21T05:20:18;101832.78;;;11.97;99.34
71791;BME280;59638;52.126;5.434;2022-08-21T05:22:45;101827.34;;;11.99;99.35
71791;BME280;59638;52.126;5.434;2022-08-21T05:25:12;101836.00;;;12.01;99.17
71791;BME280;59638;52.126;5.434;2022-08-21T05:27:38;101832.03;;;12.07;99.15
71791;BME280;59638;52.126;5.434;2022-08-21T05:30:09;101836.97;;;12.11;99.10
71791;BME280;59638;52.126;5.434;2022-08-21T05:32:36;101826.00;;;12.16;99.44
71791;BME280;59638;52.126;5.434;2022-08-21T05:35:07;101839.09;;;12.29;99.55
71791;BME280;59638;52.126;5.434;2022-08-21T05:37:34;101833.88;;;12.38;99.46
71791;BME280;59638;52.126;5.434;2022-08-21T05:40:01;101834.00;;;12.48;99.24
71791;BME280;59638;52.126;5.434;2022-08-21T05:42:49;101829.59;;;12.58;98.93
71791;BME280;59638;52.126;5.434;2022-08-21T05:45:25;101830.53;;;12.68;98.79
71791;BME280;59638;52.126;5.434;2022-08-21T05:48:17;101829.25;;;12.84;98.68
71791;BME280;59638;52.126;5.434;2022-08-21T05:50:46;101831.34;;;13.01;98.88
71791;BME280;59638;52.126;5.434;2022-08-21T05:53:14;101828.34;;;13.15;98.44
71791;BME280;59638;52.126;5.434;2022-08-21T05:55:42;101822.59;;;13.31;98.40
71791;BME280;59638;52.126;5.434;2022-08-21T05:58:16;101825.50;;;13.49;97.87
71791;BME280;59638;52.126;5.434;2022-08-21T06:00:44;101816.09;;;13.75;97.73
71791;BME280;59638;52.126;5.434;2022-08-21T06:03:14;101817.28;;;14.02;97.26
71791;BME280;59638;52.126;5.434;2022-08-21T06:05:41;101815.66;;;14.30;96.41
71791;BME280;59638;52.126;5.434;2022-08-21T06:08:08;101824.09;;;14.54;96.15
71791;BME280;59638;52.126;5.434;2022-08-21T06:10:34;101815.13;;;14.84;95.59
71791;BME280;59638;52.126;5.434;2022-08-21T06:13:01;101814.84;;;15.07;94.58
71791;BME280;59638;52.126;5.434;2022-08-21T06:15:27;101813.91;;;15.35;94.27
71791;BME280;59638;52.126;5.434;2022-08-21T06:17:54;101821.69;;;15.66;93.63
71791;BME280;59638;52.126;5.434;2022-08-21T06:20:21;101822.16;;;15.79;92.43
71791;BME280;59638;52.126;5.434;2022-08-21T06:22:48;101819.84;;;15.94;92.06
71791;BME280;59638;52.126;5.434;2022-08-21T06:25:15;101822.22;;;16.15;91.91
71791;BME280;59638;52.126;5.434;2022-08-21T06:27:41;101816.47;;;16.37;91.01
71791;BME280;59638;52.126;5.434;2022-08-21T06:30:08;101813.03;;;16.63;90.12
71791;BME280;59638;52.126;5.434;2022-08-21T06:32:35;101817.22;;;16.83;88.99
71791;BME280;59638;52.126;5.434;2022-08-21T06:35:03;101817.56;;;16.80;87.71
71791;BME280;59638;52.126;5.434;2022-08-21T06:37:30;101812.94;;;16.90;87.51
71791;BME280;59638;52.126;5.434;2022-08-21T06:39:56;101807.28;;;17.37;86.76
71791;BME280;59638;52.126;5.434;2022-08-21T06:42:24;101803.84;;;17.87;85.43
71791;BME280;59638;52.126;5.434;2022-08-21T06:44:53;101810.84;;;18.63;84.54
71791;BME280;59638;52.126;5.434;2022-08-21T06:47:20;101802.72;;;19.44;82.21
71791;BME280;59638;52.126;5.434;2022-08-21T06:49:46;101811.00;;;20.05;78.42
71791;BME280;59638;52.126;5.434;2022-08-21T06:52:13;101808.84;;;21.44;75.89
71791;BME280;59638;52.126;5.434;2022-08-21T06:54:40;101800.94;;;22.66;69.26
71791;BME280;59638;52.126;5.434;2022-08-21T06:57:07;101806.00;;;23.32;67.44
71791;BME280;59638;52.126;5.434;2022-08-21T06:59:33;101804.09;;;24.15;64.13
71791;BME280;59638;52.126;5.434;2022-08-21T07:02:00;101810.78;;;23.37;65.40
71791;BME280;59638;52.126;5.434;2022-08-21T07:04:26;101790.38;;;24.17;63.20
71791;BME280;59638;52.126;5.434;2022-08-21T07:06:53;101803.34;;;24.94;60.54
71791;BME280;59638;52.126;5.434;2022-08-21T07:09:19;101797.53;;;24.97;58.52
71791;BME280;59638;52.126;5.434;2022-08-21T07:11:53;101795.03;;;24.49;59.60
71791;BME280;59638;52.126;5.434;2022-08-21T07:14:20;101800.81;;;24.33;61.48
71791;BME280;59638;52.126;5.434;2022-08-21T07:16:47;101800.88;;;24.86;59.91
71791;BME280;59638;52.126;5.434;2022-08-21T07:19:13;101790.38;;;25.56;57.71
71791;BME280;59638;52.126;5.434;2022-08-21T07:21:40;101790.31;;;25.69;55.85
71791;BME280;59638;52.126;5.434;2022-08-21T07:24:06;101796.91;;;24.88;58.35
71791;BME280;59638;52.126;5.434;2022-08-21T07:26:33;101789.19;;;25.32;58.68
71791;BME280;59638;52.126;5.434;2022-08-21T07:28:59;101785.72;;;25.69;57.08
71791;BME280;59638;52.126;5.434;2022-08-21T07:31:27;101794.22;;;25.08;58.20
71791;BME280;59638;52.126;5.434;2022-08-21T07:33:54;101804.81;;;24.63;57.37
71791;BME280;59638;52.126;5.434;2022-08-21T07:36:21;101800.41;;;24.36;60.96
71791;BME280;59638;52.126;5.434;2022-08-21T07:38:47;101792.97;;;24.84;59.01
71791;BME280;59638;52.126;5.434;2022-08-21T07:41:21;101796.63;;;25.43;57.36
71791;BME280;59638;52.126;5.434;2022-08-21T07:43:48;101798.56;;;25.23;58.62
71791;BME280;59638;52.126;5.434;2022-08-21T07:46:18;101805.22;;;25.07;58.62
71791;BME280;59638;52.126;5.434;2022-08-21T07:48:44;101798.69;;;25.41;57.81
71791;BME280;59638;52.126;5.434;2022-08-21T07:51:13;101792.78;;;25.70;57.53
71791;BME280;59638;52.126;5.434;2022-08-21T07:53:40;101793.81;;;25.83;55.28
71791;BME280;59638;52.126;5.434;2022-08-21T07:56:09;101800.69;;;25.79;57.82
71791;BME280;59638;52.126;5.434;2022-08-21T07:58:37;101799.75;;;25.98;56.78
71791;BME280;59638;52.126;5.434;2022-08-21T08:01:05;101790.16;;;26.65;55.94
71791;BME280;59638;52.126;5.434;2022-08-21T08:03:32;101803.22;;;26.12;55.37
71791;BME280;59638;52.126;5.434;2022-08-21T08:05:59;101801.28;;;25.81;56.29
71791;BME280;59638;52.126;5.434;2022-08-21T08:08:25;101800.72;;;25.65;56.90
71791;BME280;59638;52.126;5.434;2022-08-21T08:10:53;101797.41;;;25.63;55.77
71791;BME280;59638;52.126;5.434;2022-08-21T08:13:22;101795.22;;;25.92;55.29
71791;BME280;59638;52.126;5.434;2022-08-21T08:15:48;101790.66;;;25.86;54.88
71791;BME280;59638;52.126;5.434;2022-08-21T08:18:15;101794.97;;;25.42;55.82
71791;BME280;59638;52.126;5.434;2022-08-21T08:20:41;101782.81;;;25.64;56.33
71791;BME280;59638;52.126;5.434;2022-08-21T08:23:11;101775.66;;;25.90;54.63
71791;BME280;59638;52.126;5.434;2022-08-21T08:25:38;101780.03;;;25.91;54.71
71791;BME280;59638;52.126;5.434;2022-08-21T08:28:06;101780.53;;;26.69;52.77
71791;BME280;59638;52.126;5.434;2022-08-21T08:30:44;101780.72;;;26.93;51.13
71791;BME280;59638;52.126;5.434;2022-08-21T08:33:11;101787.00;;;26.43;53.30
71791;BME280;59638;52.126;5.434;2022-08-21T08:35:38;101786.53;;;25.83;54.75
71791;BME280;59638;52.126;5.434;2022-08-21T08:38:06;101784.97;;;26.32;53.28
71791;BME280;59638;52.126;5.434;2022-08-21T08:40:39;101782.22;;;26.39;54.52
71791;BME280;59638;52.126;5.434;2022-08-21T08:43:08;101790.50;;;26.75;53.01
71791;BME280;59638;52.126;5.434;2022-08-21T08:45:42;101789.91;;;26.92;52.01
71791;BME280;59638;52.126;5.434;2022-08-21T08:48:12;101785.41;;;27.29;52.26
71791;BME280;59638;52.126;5.434;2022-08-21T08:50:54;101778.88;;;27.85;50.16
71791;BME280;59638;52.126;5.434;2022-08-21T08:53:25;101788.63;;;27.56;51.32
71791;BME280;59638;52.126;5.434;2022-08-21T08:55:55;101790.81;;;27.47;51.00
71791;BME280;59638;52.126;5.434;2022-08-21T08:58:34;101787.34;;;27.40;51.38
71791;BME280;59638;52.126;5.434;2022-08-21T09:01:11;101783.44;;;27.18;51.76
71791;BME280;59638;52.126;5.434;2022-08-21T09:03:40;101772.03;;;27.64;50.45
71791;BME280;59638;52.126;5.434;2022-08-21T09:09:48;101780.28;;;26.96;53.45
71791;BME280;59638;52.126;5.434;2022-08-21T09:12:03;101779.19;;;26.28;53.25
71791;BME280;59638;52.126;5.434;2022-08-21T09:20:20;101776.06;;;27.43;50.63
71791;BME280;59638;52.126;5.434;2022-08-21T09:25:45;101777.59;;;25.11;54.92
71791;BME280;59638;52.126;5.434;2022-08-21T09:28:16;101783.47;;;23.81;58.50
71791;BME280;59638;52.126;5.434;2022-08-21T09:30:42;101782.94;;;23.23;60.03
71791;BME280;59638;52.126;5.434;2022-08-21T09:33:11;101776.88;;;23.49;60.83
71791;BME280;59638;52.126;5.434;2022-08-21T09:35:50;101775.97;;;23.35;60.89
71791;BME280;59638;52.126;5.434;2022-08-21T09:38:29;101780.50;;;24.90;58.08
71791;BME280;59638;52.126;5.434;2022-08-21T09:40:59;101782.84;;;26.91;51.96
71791;BME280;59638;52.126;5.434;2022-08-21T09:43:27;101774.47;;;26.49;51.94
71791;BME280;59638;52.126;5.434;2022-08-21T09:46:23;101772.75;;;26.98;51.60
71791;BME280;59638;52.126;5.434;2022-08-21T09:48:55;101772.94;;;27.58;51.66
71791;BME280;59638;52.126;5.434;2022-08-21T09:54:10;101778.00;;;27.18;49.22
71791;BME280;59638;52.126;5.434;2022-08-21T09:56:51;101765.44;;;28.20;46.55
71791;BME280;59638;52.126;5.434;2022-08-21T09:59:38;101766.16;;;28.92;44.70
71791;BME280;59638;52.126;5.434;2022-08-21T10:02:42;101772.94;;;27.03;50.50
71791;BME280;59638;52.126;5.434;2022-08-21T10:05:25;101767.47;;;25.58;53.04
71791;BME280;59638;52.126;5.434;2022-08-21T10:07:52;101772.59;;;24.88;55.06
71791;BME280;59638;52.126;5.434;2022-08-21T10:10:26;101769.88;;;24.29;57.85
71791;BME280;59638;52.126;5.434;2022-08-21T10:15:58;101768.03;;;24.36;57.37
71791;BME280;59638;52.126;5.434;2022-08-21T10:26:38;101763.19;;;26.52;50.90
71791;BME280;59638;52.126;5.434;2022-08-21T10:29:31;101761.75;;;26.93;50.24
71791;BME280;59638;52.126;5.434;2022-08-21T10:32:10;101747.66;;;28.06;46.93
71791;BME280;59638;52.126;5.434;2022-08-21T10:40:06;101755.78;;;29.41;44.63
71791;BME280;59638;52.126;5.434;2022-08-21T10:42:42;101741.31;;;30.10;42.00
71791;BME280;59638;52.126;5.434;2022-08-21T10:47:55;101734.19;;;30.09;40.56
71791;BME280;59638;52.126;5.434;2022-08-21T10:53:19;101736.38;;;30.74;41.73
71791;BME280;59638;52.126;5.434;2022-08-21T10:55:56;101737.13;;;30.52;40.13
71791;BME280;59638;52.126;5.434;2022-08-21T10:58:31;101725.50;;;29.78;41.61
71791;BME280;59638;52.126;5.434;2022-08-21T11:01:20;101724.44;;;29.79;42.36
71791;BME280;59638;52.126;5.434;2022-08-21T11:04:20;101721.56;;;30.02;42.37
71791;BME280;59638;52.126;5.434;2022-08-21T11:06:53;101719.38;;;31.05;39.82
71791;BME280;59638;52.126;5.434;2022-08-21T11:09:26;101721.41;;;31.86;35.64
71791;BME280;59638;52.126;5.434;2022-08-21T11:12:24;101730.03;;;31.51;38.13
71791;BME280;59638;52.126;5.434;2022-08-21T11:15:00;101724.13;;;30.76;39.20
71791;BME280;59638;52.126;5.434;2022-08-21T11:17:41;101730.44;;;30.60;38.70
71791;BME280;59638;52.126;5.434;2022-08-21T11:20:10;101721.47;;;31.42;35.54
71791;BME280;59638;52.126;5.434;2022-08-21T11:23:19;101715.34;;;30.19;39.63
71791;BME280;59638;52.126;5.434;2022-08-21T11:25:54;101735.06;;;27.51;42.99
71791;BME280;59638;52.126;5.434;2022-08-21T11:28:28;101718.72;;;26.84;45.31
71791;BME280;59638;52.126;5.434;2022-08-21T11:36:26;101710.59;;;29.40;40.55
71791;BME280;59638;52.126;5.434;2022-08-21T11:41:34;101720.97;;;27.61;44.34
71791;BME280;59638;52.126;5.434;2022-08-21T11:44:55;101723.47;;;28.58;46.17
71791;BME280;59638;52.126;5.434;2022-08-21T11:50:02;101727.25;;;28.03;41.59
71791;BME280;59638;52.126;5.434;2022-08-21T11:52:56;101727.69;;;26.60;47.21
71791;BME280;59638;52.126;5.434;2022-08-21T11:55:41;101729.88;;;26.95;46.49
71791;BME280;59638;52.126;5.434;2022-08-21T11:58:23;101733.63;;;26.19;47.24
71791;BME280;59638;52.126;5.434;2022-08-21T12:01:05;101737.97;;;25.50;49.53
71791;BME280;59638;52.126;5.434;2022-08-21T12:03:36;101736.53;;;25.92;49.94
71791;BME280;59638;52.126;5.434;2022-08-21T12:06:09;101739.72;;;25.83;46.57
71791;BME280;59638;52.126;5.434;2022-08-21T12:08:37;101749.78;;;24.78;50.66
71791;BME280;59638;52.126;5.434;2022-08-21T12:11:27;101749.78;;;24.45;51.64
71791;BME280;59638;52.126;5.434;2022-08-21T12:14:12;101747.00;;;23.98;52.55
71791;BME280;59638;52.126;5.434;2022-08-21T12:16:47;101754.16;;;23.65;55.61
71791;BME280;59638;52.126;5.434;2022-08-21T12:21:57;101748.13;;;23.63;55.62
71791;BME280;59638;52.126;5.434;2022-08-21T12:27:13;101746.84;;;24.33;54.54
71791;BME280;59638;52.126;5.434;2022-08-21T12:29:58;101739.56;;;23.46;56.27
71791;BME280;59638;52.126;5.434;2022-08-21T12:32:29;101737.81;;;23.25;56.63
71791;BME280;59638;52.126;5.434;2022-08-21T12:37:38;101732.28;;;24.07;57.24
71791;BME280;59638;52.126;5.434;2022-08-21T12:40:20;101726.53;;;28.96;47.59
71791;BME280;59638;52.126;5.434;2022-08-21T12:42:50;101714.59;;;30.23;40.79
71791;BME280;59638;52.126;5.434;2022-08-21T12:45:28;101734.53;;;27.61;44.22
71791;BME280;59638;52.126;5.434;2022-08-21T12:47:56;101729.91;;;25.82;47.59
71791;BME280;59638;52.126;5.434;2022-08-21T12:50:36;101744.56;;;25.09;50.44
71791;BME280;59638;52.126;5.434;2022-08-21T12:53:12;101735.94;;;25.32;50.01
71791;BME280;59638;52.126;5.434;2022-08-21T12:55:46;101729.03;;;26.19;49.13
71791;BME280;59638;52.126;5.434;2022-08-21T12:58:23;101732.97;;;26.73;45.93
71791;BME280;59638;52.126;5.434;2022-08-21T13:01:15;101727.50;;;26.80;45.29
71791;BME280;59638;52.126;5.434;2022-08-21T13:03:43;101729.78;;;26.83;45.50
71791;BME280;59638;52.126;5.434;2022-08-21T13:06:18;101734.72;;;26.86;45.51
71791;BME280;59638;52.126;5.434;2022-08-21T13:08:47;101733.41;;;26.20;47.31
71791;BME280;59638;52.126;5.434;2022-08-21T13:11:16;101738.56;;;25.97;47.60
71791;BME280;59638;52.126;5.434;2022-08-21T13:14:00;101742.16;;;25.39;49.22
71791;BME280;59638;52.126;5.434;2022-08-21T13:16:31;101746.78;;;25.26;49.37
71791;BME280;59638;52.126;5.434;2022-08-21T13:19:06;101753.50;;;24.90;50.73
71791;BME280;59638;52.126;5.434;2022-08-21T13:21:38;101746.88;;;24.46;50.85
71791;BME280;59638;52.126;5.434;2022-08-21T13:27:01;101747.56;;;23.74;57.09
71791;BME280;59638;52.126;5.434;2022-08-21T13:29:33;101744.84;;;23.74;56.21
71791;BME280;59638;52.126;5.434;2022-08-21T13:32:05;101744.69;;;23.88;55.42
71791;BME280;59638;52.126;5.434;2022-08-21T13:34:35;101739.09;;;23.90;56.58
71791;BME280;59638;52.126;5.434;2022-08-21T13:37:07;101747.94;;;23.64;57.39
71791;BME280;59638;52.126;5.434;2022-08-21T13:39:37;101740.88;;;23.63;54.30
71791;BME280;59638;52.126;5.434;2022-08-21T13:42:10;101734.69;;;23.76;55.95
71791;BME280;59638;52.126;5.434;2022-08-21T13:44:44;101733.09;;;23.95;54.28
71791;BME280;59638;52.126;5.434;2022-08-21T13:47:12;101738.09;;;24.04;54.21
71791;BME280;59638;52.126;5.434;2022-08-21T13:49:43;101738.53;;;24.28;53.21
71791;BME280;59638;52.126;5.434;2022-08-21T13:52:18;101732.28;;;24.01;53.87
71791;BME280;59638;52.126;5.434;2022-08-21T13:55:07;101743.03;;;23.94;53.64
71791;BME280;59638;52.126;5.434;2022-08-21T13:57:37;101738.28;;;23.96;53.35
71791;BME280;59638;52.126;5.434;2022-08-21T14:00:17;101737.66;;;23.94;54.46
71791;BME280;59638;52.126;5.434;2022-08-21T14:02:48;101738.06;;;23.91;56.20
71791;BME280;59638;52.126;5.434;2022-08-21T14:05:20;101728.91;;;23.72;56.63
71791;BME280;59638;52.126;5.434;2022-08-21T14:07:50;101735.00;;;23.53;56.60
71791;BME280;59638;52.126;5.434;2022-08-21T14:10:20;101739.97;;;23.49;56.64